| time (UTC) | temp C | wind direction | speed KPH | gust KPH | rain 1hr cm | rain 24hr cm | rain mn cm | humidity % | barometer mb |
| 20260504234524 | 27 | 228 | 1.6 | 17.7 | 0.00 | 0.00 | 0.00 | 46 | 1001.9 |
| 20260504233011 | 28 | 202 | 3.2 | 16.1 | 0.00 | 0.00 | 0.00 | 46 | 1002.0 |
| 20260504231528 | 27 | 205 | 0.0 | 8.0 | 0.00 | 0.00 | 0.00 | 47 | 1002.1 |
| 20260504230011 | 28 | 205 | 3.2 | 19.3 | 0.00 | 0.00 | 0.00 | 45 | 1002.2 |
| 20260504224506 | 27 | 224 | 0.0 | 29.0 | 0.00 | 0.00 | 0.00 | 46 | 1002.3 |
| 20260504223006 | 27 | 223 | 3.2 | 20.9 | 0.00 | 0.00 | 0.00 | 46 | 1002.4 |
| 20260504221505 | 27 | 273 | 4.8 | 22.5 | 0.00 | 0.00 | 0.00 | 46 | 1002.3 |
| 20260504220004 | 28 | 254 | 3.2 | 19.3 | 0.00 | 0.00 | 0.00 | 47 | 1002.4 |
| 20260504214504 | 28 | 231 | 0.0 | 12.9 | 0.00 | 0.00 | 0.00 | 47 | 1002.4 |
| 20260504213105 | 28 | 203 | 3.2 | 19.3 | 0.00 | 0.00 | 0.00 | 46 | 1002.5 |
| 20260504211559 | 27 | 269 | 3.2 | 22.5 | 0.00 | 0.00 | 0.00 | 48 | 1002.5 |
| 20260504204634 | 27 | 286 | 4.8 | 29.0 | 0.00 | 0.00 | 0.00 | 48 | 1002.6 |
| 20260504203052 | 27 | 205 | 6.4 | 17.7 | 0.00 | 0.00 | 0.00 | 50 | 1002.7 |
| 20260504201547 | 26 | 156 | 4.8 | 20.9 | 0.00 | 0.00 | 0.00 | 52 | 1003.2 |
| 20260504200046 | 26 | 248 | 3.2 | 17.7 | 0.00 | 0.00 | 0.00 | 55 | 1003.3 |
| 20260504194548 | 25 | 243 | 3.2 | 12.9 | 0.00 | 0.00 | 0.00 | 63 | 1003.8 |
| 20260504193035 | 23 | 209 | 0.0 | 4.8 | 0.00 | 0.00 | 0.00 | 65 | 1003.9 |
| 20260504191531 | 22 | 178 | 0.0 | 8.0 | 0.00 | 0.00 | 0.00 | 66 | 1004.2 |
| 20260504190033 | 21 | 196 | 0.0 | 6.4 | 0.00 | 0.00 | 0.00 | 72 | 1004.4 |
| 20260504184526 | 20 | 182 | 1.6 | 12.9 | 0.00 | 0.00 | 0.00 | 70 | 1003.7 |
| 20260504183027 | 20 | 163 | 3.2 | 16.1 | 0.00 | 0.00 | 0.00 | 69 | 1004.2 |
| 20260504181522 | 20 | 180 | 0.0 | 3.2 | 0.00 | 0.00 | 0.00 | 65 | 1005.0 |
| 20260504180021 | 20 | 183 | 0.0 | 9.7 | 0.00 | 0.00 | 0.00 | 64 | 1005.0 |
| 20260504174520 | 21 | 198 | 0.0 | 11.3 | 0.00 | 0.00 | 0.00 | 63 | 1005.0 |
| 20260504173018 | 21 | 146 | 0.0 | 12.9 | 0.00 | 0.00 | 0.00 | 63 | 1005.2 |
| 20260504171533 | 21 | 215 | 0.0 | 6.4 | 0.00 | 0.00 | 0.00 | 64 | 1005.8 |
| 20260504150106 | 18 | 192 | 0.0 | 6.4 | 0.00 | 0.03 | 0.00 | 70 | 1006.9 |
| 20260504081536 | 15 | 331 | 0.0 | 0.0 | 0.00 | 0.03 | 0.00 | 80 | 1008.5 |
| 20260504044602 | 18 | 331 | 0.0 | 0.0 | 0.00 | 0.03 | 0.03 | 65 | 1008.5 |
| 20260504043053 | 18 | 331 | 0.0 | 0.0 | 0.00 | 0.03 | 0.03 | 64 | 1008.6 |
| 20260504041552 | 19 | 331 | 0.0 | 6.4 | 0.00 | 0.03 | 0.03 | 61 | 1009.1 |
| 20260504040051 | 20 | 309 | 4.8 | 11.3 | 0.00 | 0.03 | 0.03 | 63 | 1009.3 |
| 20260504034607 | 20 | 288 | 0.0 | 12.9 | 0.00 | 0.03 | 0.03 | 58 | 1009.3 |
| 20260504033050 | 20 | 198 | 0.0 | 1.6 | 0.00 | 0.03 | 0.03 | 58 | 1008.8 |
| 20260504031550 | 20 | 200 | 0.0 | 1.6 | 0.00 | 0.03 | 0.03 | 59 | 1009.5 |
| 20260504030048 | 20 | 257 | 0.0 | 0.0 | 0.00 | 0.03 | 0.03 | 63 | 1009.7 |
| 20260504024547 | 20 | 259 | 0.0 | 0.0 | 0.00 | 0.03 | 0.03 | 62 | 1009.4 |
| 20260504023047 | 21 | 259 | 0.0 | 0.0 | 0.00 | 0.03 | 0.03 | 60 | 1009.4 |
| 20260504021547 | 21 | 259 | 0.0 | 0.0 | 0.00 | 0.03 | 0.03 | 56 | 1009.4 |
| 20260504020046 | 22 | 259 | 0.0 | 0.0 | 0.00 | 0.03 | 0.03 | 54 | 1009.3 |
| 20260504014600 | 22 | 259 | 0.0 | 0.0 | 0.00 | 0.03 | 0.03 | 53 | 1009.3 |
| 20260504013051 | 22 | 259 | 0.0 | 1.6 | 0.00 | 0.03 | 0.03 | 51 | 1009.3 |
| 20260504011545 | 22 | 259 | 1.6 | 6.4 | 0.00 | 0.03 | 0.03 | 48 | 1009.1 |
| 20260504010043 | 23 | 296 | 3.2 | 8.0 | 0.00 | 0.03 | 0.03 | 56 | 1009.1 |
| 20260504004543 | 23 | 236 | 0.0 | 1.6 | 0.00 | 0.03 | 0.03 | 48 | 1008.8 |
| 20260504003050 | 24 | 236 | 0.0 | 1.6 | 0.00 | 0.03 | 0.03 | 45 | 1008.9 |
| 20260504001543 | 25 | 236 | 0.0 | 1.6 | 0.00 | 0.03 | 0.03 | 43 | 1008.9 |
| 20260504000041 | 25 | 236 | 0.0 | 16.1 | 0.00 | 0.03 | 0.03 | 41 | 1008.9 |